This is the latest recevied weather packets stored in our database for station/object TA1FM. If no packets are shown the sender has not sent any weather packets the latest 10 day(s).
| Time | Temp. | Humidity | Pressure | Rain* | Wind** | Luminosity | Snow |
|---|---|---|---|---|---|---|---|
| 1777721638 | 3.89° C | 87% | 912.2 hPa | - | - | - | - |
| 1777720737 | 3.33° C | 88% | 912.1 hPa | - | - | - | - |
| 1777719837 | 2.78° C | 95% | 912.3 hPa | - | - | - | - |
| 1777690961 | -0.56° C | 96% | 912.4 hPa | - | - | - | - |
| 1777638723 | 3.33° C | 97% | 914.2 hPa | - | - | - | - |
| 1777637822 | 3.33° C | 97% | 914.3 hPa | - | - | - | - |
| 1777636922 | 3.33° C | 97% | 914.1 hPa | - | - | - | - |
| 1777636022 | 3.33° C | 100% | 914.2 hPa | - | - | - | - |
| 1777635122 | 2.78° C | 100% | 913.9 hPa | - | - | - | - |
| 1777611647 | 3.33° C | 91% | 912 hPa | - | - | - | - |
| 1777609854 | 3.33° C | 90% | 911.9 hPa | - | - | - | - |
| 1777608947 | 3.33° C | 90% | 912 hPa | - | - | - | - |
| 1777608046 | 3.33° C | 91% | 911.8 hPa | - | - | - | - |
| 1777607146 | 3.33° C | 92% | 911.7 hPa | - | - | - | - |
| 1777606246 | 2.78° C | 96% | 911.7 hPa | - | - | - | - |
| 1777582898 | 6.67° C | 76% | 910.9 hPa | - | - | - | - |
| 1777581997 | 6.67° C | 76% | 910.8 hPa | - | - | - | - |
| 1777581097 | 7.22° C | 75% | 911.2 hPa | - | - | - | - |
| 1777580197 | 7.22° C | 74% | 911.5 hPa | - | - | - | - |
| 1777579297 | 7.22° C | 74% | 911.3 hPa | - | - | - | - |
| 1777578397 | 7.22° C | 74% | 911.4 hPa | - | - | - | - |
| 1777577497 | 7.22° C | 72% | 911.1 hPa | - | - | - | - |
| 1777576597 | 7.22° C | 71% | 911 hPa | - | - | - | - |
| 1777575696 | 7.78° C | 70% | 911.1 hPa | - | - | - | - |
| 1777574796 | 7.78° C | 69% | 911 hPa | - | - | - | - |
* Rain since midnight (hover to see other rain measurements)
** Current wind speed in m/s (hover to see current wind gust speed)